Griffins Peace River Ranch Airport


Codes: FL00/
Name: Griffins Peace River Ranch Airport
City: Zolfo Springs
Country: United States
Elevation: 65 ft.

Photos at Griffins Peace River Ranch Airport


   Photos courtesy of SpottingLog. You can add your own sightings and photos by signing up for a free trial today.



No photos found.

Weather at Griffins Peace River Ranch Airport


Time (UTC)DescriptionTempratureWindCloud coverageVisibilityPressureHumidity
23-May-2024 18:00Clear Sky35°C4 mph, N4%10000m1014hPa39%
23-May-2024 21:00Clear Sky36°C7 mph, NE3%10000m1013hPa30%
24-May-2024 00:00Clear Sky31°C2 mph, NW3%10000m1013hPa39%
24-May-2024 03:00Scattered Clouds24°C9 mph, E44%10000m1015hPa56%
24-May-2024 06:00Few Clouds21°C7 mph, E24%10000m1014hPa86%
24-May-2024 09:00Clear Sky21°C4 mph, SE0%10000m1013hPa92%
24-May-2024 12:00Clear Sky23°C2 mph, SE4%10000m1015hPa77%
24-May-2024 15:00Clear Sky33°C4 mph, W3%10000m1014hPa39%
24-May-2024 18:00Clear Sky38°C2 mph, NW9%10000m1012hPa24%
24-May-2024 21:00Broken Clouds36°C20 mph, W57%10000m1010hPa30%
25-May-2024 00:00Scattered Clouds29°C11 mph, NW37%10000m1012hPa50%
25-May-2024 03:00Scattered Clouds25°C7 mph, NW38%10000m1014hPa70%
25-May-2024 06:00Scattered Clouds23°C9 mph, NW31%10000m1013hPa79%
25-May-2024 09:00Clear Sky22°C4 mph, NW0%10000m1013hPa92%
25-May-2024 12:00Clear Sky25°C7 mph, NW2%10000m1014hPa74%
25-May-2024 15:00Scattered Clouds33°C7 mph, W37%10000m1014hPa37%
25-May-2024 18:00Scattered Clouds38°C13 mph, W31%10000m1012hPa24%
25-May-2024 21:00Few Clouds36°C16 mph, W19%10000m1011hPa25%
26-May-2024 00:00Scattered Clouds29°C13 mph, W32%10000m1013hPa43%
26-May-2024 03:00Clear Sky22°C7 mph, NW0%10000m1015hPa83%
26-May-2024 06:00Clear Sky21°C7 mph, NW1%10000m1014hPa89%
26-May-2024 09:00Clear Sky21°C2 mph, NW4%10000m1013hPa92%
26-May-2024 12:00Clear Sky24°C2 mph, W2%10000m1015hPa74%
26-May-2024 15:00Clear Sky34°C4 mph, SW0%10000m1015hPa32%
26-May-2024 18:00Few Clouds39°C7 mph, SW20%10000m1013hPa18%
26-May-2024 21:00Clear Sky37°C18 mph, W3%10000m1012hPa23%
27-May-2024 00:00Clear Sky31°C9 mph, W2%10000m1014hPa35%
27-May-2024 03:00Clear Sky23°C7 mph, W0%10000m1016hPa75%
27-May-2024 06:00Few Clouds21°C4 mph, W11%10000m1015hPa86%
27-May-2024 09:00Clear Sky21°C4 mph, W1%10000m1014hPa88%
27-May-2024 12:00Clear Sky25°C4 mph, SW1%10000m1016hPa67%
27-May-2024 15:00Clear Sky34°C7 mph, SW3%10000m1016hPa36%
27-May-2024 18:00Clear Sky39°C11 mph, SW5%10000m1014hPa25%
27-May-2024 21:00Scattered Clouds38°C18 mph, SW50%10000m1013hPa26%
28-May-2024 00:00Scattered Clouds31°C13 mph, W35%10000m1015hPa40%
28-May-2024 03:00Clear Sky24°C4 mph, W0%10000m1016hPa81%
28-May-2024 06:00Clear Sky22°C4 mph, W0%10000m1015hPa92%
28-May-2024 09:00Clear Sky23°C2 mph, W0%10000m1016hPa92%
28-May-2024 12:00Clear Sky26°C2 mph, W3%10000m1018hPa76%
28-May-2024 15:00Clear Sky34°C7 mph, SW3%10000m1017hPa41%